sensor_id;sensor_type;location;lat;lon;timestamp;P1;P2;P0
78999;PMS7003;68406;53.914;27.416;2023-11-21T06:41:43;22;17.8;12.3
78999;PMS7003;68406;53.914;27.416;2023-11-21T06:46:33;22.6;19.5;13.3
78999;PMS7003;68406;53.914;27.416;2023-11-21T06:51:55;25.1;20.5;13.9
78999;PMS7003;68406;53.914;27.416;2023-11-21T06:56:53;27.5;22.2;14.8
78999;PMS7003;68406;53.914;27.416;2023-11-21T07:01:39;24.7;21.2;14.5
78999;PMS7003;68406;53.914;27.416;2023-11-21T07:06:37;23.1;19.1;13.6
78999;PMS7003;68406;53.914;27.416;2023-11-21T07:11:29;22.7;19.6;13.2
78999;PMS7003;68406;53.914;27.416;2023-11-21T07:16:19;23.6;19.3;13.1
78999;PMS7003;68406;53.914;27.416;2023-11-21T07:21:55;24;18.7;13
78999;PMS7003;68406;53.914;27.416;2023-11-21T07:26:21;25.2;20.6;13.8
78999;PMS7003;68406;53.914;27.416;2023-11-21T07:31:55;22.9;19.5;13.4
78999;PMS7003;68406;53.914;27.416;2023-11-21T07:36:35;23.9;20.4;13.9
78999;PMS7003;68406;53.914;27.416;2023-11-21T07:41:55;23.2;18.5;12.7
78999;PMS7003;68406;53.914;27.416;2023-11-21T07:46:43;21.6;17.1;11.8
78999;PMS7003;68406;53.914;27.416;2023-11-21T07:51:55;24.1;18.9;13.4
78999;PMS7003;68406;53.914;27.416;2023-11-21T07:56:53;19.5;15.8;11.9
78999;PMS7003;68406;53.914;27.416;2023-11-21T08:01:29;21.6;17.5;12.3
78999;PMS7003;68406;53.914;27.416;2023-11-21T08:06:27;21.1;16.2;12
78999;PMS7003;68406;53.914;27.416;2023-11-21T08:11:33;20.2;17.1;12.5
78999;PMS7003;68406;53.914;27.416;2023-11-21T08:16:37;21.5;17;12.4
78999;PMS7003;68406;53.914;27.416;2023-11-21T08:21:45;19.4;16.1;11.2
78999;PMS7003;68406;53.914;27.416;2023-11-21T08:26:35;21.9;18.2;12.6
78999;PMS7003;68406;53.914;27.416;2023-11-21T08:31:55;19.8;15.9;11.3
78999;PMS7003;68406;53.914;27.416;2023-11-21T08:36:43;22.6;17.9;12.7
78999;PMS7003;68406;53.914;27.416;2023-11-21T08:41:53;19.2;14.9;10.4
78999;PMS7003;68406;53.914;27.416;2023-11-21T08:46:53;17.1;14.6;10.2
78999;PMS7003;68406;53.914;27.416;2023-11-21T08:51:27;17.7;14.2;10.2
78999;PMS7003;68406;53.914;27.416;2023-11-21T08:56:37;16.9;14;9.9
78999;PMS7003;68406;53.914;27.416;2023-11-21T09:01:19;14.7;12.3;8.8
78999;PMS7003;68406;53.914;27.416;2023-11-21T09:06:19;15.6;12.7;9.1
78999;PMS7003;68406;53.914;27.416;2023-11-21T09:11:51;12.8;10.7;7.8
78999;PMS7003;68406;53.914;27.416;2023-11-21T09:16:31;12.7;9.5;7.2
78999;PMS7003;68406;53.914;27.416;2023-11-21T09:21:55;12.3;10.2;7.5
78999;PMS7003;68406;53.914;27.416;2023-11-21T09:26:45;12.7;10.1;7.4
78999;PMS7003;68406;53.914;27.416;2023-11-21T09:31:53;12.1;9.9;7.3
78999;PMS7003;68406;53.914;27.416;2023-11-21T09:36:53;10.4;8.6;6.4
78999;PMS7003;68406;53.914;27.416;2023-11-21T09:41:20;11.2;9.3;7.1
78999;PMS7003;68406;53.914;27.416;2023-11-21T09:46:41;9.4;7.6;5.5
78999;PMS7003;68406;53.914;27.416;2023-11-21T09:51:43;11.8;9.1;6.6
78999;PMS7003;68406;53.914;27.416;2023-11-21T09:56:19;10.4;8.8;6.9
78999;PMS7003;68406;53.914;27.416;2023-11-21T10:01:45;10.5;9;7
78999;PMS7003;68406;53.914;27.416;2023-11-21T10:06:33;10;8.5;6.2
78999;PMS7003;68406;53.914;27.416;2023-11-21T10:11:57;10.7;9.3;6.7
78999;PMS7003;68406;53.914;27.416;2023-11-21T10:16:47;11.6;9.2;6.7
78999;PMS7003;68406;53.914;27.416;2023-11-21T10:21:57;11.7;9.3;6.7
78999;PMS7003;68406;53.914;27.416;2023-11-21T10:26:57;12;9;6.8
78999;PMS7003;68406;53.914;27.416;2023-11-21T10:31:29;12.1;9.5;6.7
78999;PMS7003;68406;53.914;27.416;2023-11-21T10:36:57;10.6;8.7;6.5
78999;PMS7003;68406;53.914;27.416;2023-11-21T10:41:19;10.2;7.9;6.1
78999;PMS7003;68406;53.914;27.416;2023-11-21T10:46:23;10.4;7.9;5.9
78999;PMS7003;68406;53.914;27.416;2023-11-21T10:51:45;8.8;6.9;5.3
78999;PMS7003;68406;53.914;27.416;2023-11-21T10:56:33;9;7.2;5.4
78999;PMS7003;68406;53.914;27.416;2023-11-21T11:01:55;6.9;5.6;4.3
78999;PMS7003;68406;53.914;27.416;2023-11-21T11:06:56;9;7.3;5.5
78999;PMS7003;68406;53.914;27.416;2023-11-21T11:11:55;8.6;6.9;5.2
78999;PMS7003;68406;53.914;27.416;2023-11-21T11:16:57;7.2;6.2;4.8
78999;PMS7003;68406;53.914;27.416;2023-11-21T11:21:28;9.2;7;5.5
78999;PMS7003;68406;53.914;27.416;2023-11-21T11:26:42;8.7;7.2;5.1
78999;PMS7003;68406;53.914;27.416;2023-11-21T11:31:36;8.8;6.9;5.3
78999;PMS7003;68406;53.914;27.416;2023-11-21T11:36:21;8.9;7.6;5.6
78999;PMS7003;68406;53.914;27.416;2023-11-21T11:41:42;10.4;8.7;6.7
78999;PMS7003;68406;53.914;27.416;2023-11-21T11:46:44;10.9;9;6.7
78999;PMS7003;68406;53.914;27.416;2023-11-21T11:51:17;9.2;7.8;6.2
78999;PMS7003;68406;53.914;27.416;2023-11-21T11:56:45;9.4;7.5;5.7
78999;PMS7003;68406;53.914;27.416;2023-11-21T12:01:30;10.6;8.6;6.5
78999;PMS7003;68406;53.914;27.416;2023-11-21T12:06:55;9.4;7.4;5.8
78999;PMS7003;68406;53.914;27.416;2023-11-21T12:11:43;8.1;6;4.7
78999;PMS7003;68406;53.914;27.416;2023-11-21T12:16:29;9.6;7.5;5.8
78999;PMS7003;68406;53.914;27.416;2023-11-21T12:21:47;9.3;6.8;5.4
78999;PMS7003;68406;53.914;27.416;2023-11-21T12:26:35;7.8;6.9;5.5
78999;PMS7003;68406;53.914;27.416;2023-11-21T12:31:55;9.3;7.2;5.3
78999;PMS7003;68406;53.914;27.416;2023-11-21T12:36:21;8.8;7.5;5.4
78999;PMS7003;68406;53.914;27.416;2023-11-21T12:41:31;8.5;7.2;5.5
78999;PMS7003;68406;53.914;27.416;2023-11-21T12:46:45;9.4;7.5;5.8
78999;PMS7003;68406;53.914;27.416;2023-11-21T12:51:45;9.1;8.1;6.3
78999;PMS7003;68406;53.914;27.416;2023-11-21T12:56:59;8.9;7.7;5.8
78999;PMS7003;68406;53.914;27.416;2023-11-21T13:01:43;8.7;6.5;5
78999;PMS7003;68406;53.914;27.416;2023-11-21T13:06:29;7.5;6.6;5.2
78999;PMS7003;68406;53.914;27.416;2023-11-21T13:11:19;8.2;6.7;5.3
78999;PMS7003;68406;53.914;27.416;2023-11-21T13:16:33;9;7.3;5.5
78999;PMS7003;68406;53.914;27.416;2023-11-21T13:21:53;9.4;7.5;5.5
78999;PMS7003;68406;53.914;27.416;2023-11-21T13:26:21;9.8;8.3;5.9
78999;PMS7003;68406;53.914;27.416;2023-11-21T13:31:25;10.6;9.1;6.9
78999;PMS7003;68406;53.914;27.416;2023-11-21T13:36:39;11.7;9.5;7
78999;PMS7003;68406;53.914;27.416;2023-11-21T13:41:43;11.6;9.2;6.7
78999;PMS7003;68406;53.914;27.416;2023-11-21T13:46:57;10.6;8;6
78999;PMS7003;68406;53.914;27.416;2023-11-21T13:51:35;11.9;8.1;6.2
78999;PMS7003;68406;53.914;27.416;2023-11-21T13:56:19;11.7;9.1;6.7
78999;PMS7003;68406;53.914;27.416;2023-11-21T14:01:22;13.4;9.5;6.9
78999;PMS7003;68406;53.914;27.416;2023-11-21T14:06:53;12.2;9.6;6.9
78999;PMS7003;68406;53.914;27.416;2023-11-21T14:11:55;10.4;8.6;6.5
78999;PMS7003;68406;53.914;27.416;2023-11-21T14:16:35;9.5;7.7;5.9
78999;PMS7003;68406;53.914;27.416;2023-11-21T14:21:31;8.2;6.9;4.7
78999;PMS7003;68406;53.914;27.416;2023-11-21T14:26:47;8.6;7.3;5.5
78999;PMS7003;68406;53.914;27.416;2023-11-21T14:31:43;9.5;7.5;5.7
78999;PMS7003;68406;53.914;27.416;2023-11-21T14:36:55;9;6.7;5.3
78999;PMS7003;68406;53.914;27.416;2023-11-21T14:41:43;7.2;6.5;4.8
78999;PMS7003;68406;53.914;27.416;2023-11-21T14:46:27;9;7.5;5.7
78999;PMS7003;68406;53.914;27.416;2023-11-21T14:51:19;9.2;7.1;5.3
78999;PMS7003;68406;53.914;27.416;2023-11-21T14:56:55;6.6;5.4;3.7
78999;PMS7003;68406;53.914;27.416;2023-11-21T15:01:53;8.9;7.7;5.6
78999;PMS7003;68406;53.914;27.416;2023-11-21T15:06:45;8.7;6.9;5.5
78999;PMS7003;68406;53.914;27.416;2023-11-21T15:11:19;7.5;5.9;4.7
78999;PMS7003;68406;53.914;27.416;2023-11-21T15:16:47;7.8;6.3;4.9
78999;PMS7003;68406;53.914;27.416;2023-11-21T15:21:45;7.9;6.4;5.2
78999;PMS7003;68406;53.914;27.416;2023-11-21T15:26:55;7.9;6.1;4.9
78999;PMS7003;68406;53.914;27.416;2023-11-21T15:31:45;7.8;6.1;4.9
78999;PMS7003;68406;53.914;27.416;2023-11-21T15:36:27;8.1;6.7;4.9
78999;PMS7003;68406;53.914;27.416;2023-11-21T15:41:19;7.4;6;4.6
78999;PMS7003;68406;53.914;27.416;2023-11-21T15:46:35;7.4;5.6;4.6
78999;PMS7003;68406;53.914;27.416;2023-11-21T15:51:57;7.3;6;4.7
78999;PMS7003;68406;53.914;27.416;2023-11-21T15:56:47;7.5;6.1;4.9
78999;PMS7003;68406;53.914;27.416;2023-11-21T16:01:33;7;5.7;4.4
78999;PMS7003;68406;53.914;27.416;2023-11-21T16:06:49;5.9;5.1;3.8
78999;PMS7003;68406;53.914;27.416;2023-11-21T16:11:59;6.7;5.8;4.7
78999;PMS7003;68406;53.914;27.416;2023-11-21T16:16:59;7.8;6.3;5.1
78999;PMS7003;68406;53.914;27.416;2023-11-21T16:21:19;7.8;6.1;4.7
78999;PMS7003;68406;53.914;27.416;2023-11-21T16:26:21;8.3;6.2;4.7
78999;PMS7003;68406;53.914;27.416;2023-11-21T16:31:22;6.7;5.7;4.4
78999;PMS7003;68406;53.914;27.416;2023-11-21T16:36:19;6.5;5.3;4.2
78999;PMS7003;68406;53.914;27.416;2023-11-21T16:41:55;7.9;5.9;4.6
78999;PMS7003;68406;53.914;27.416;2023-11-21T16:46:37;7.5;6.7;5.1
78999;PMS7003;68406;53.914;27.416;2023-11-21T16:51:27;8;6.2;4.6
78999;PMS7003;68406;53.914;27.416;2023-11-21T16:56:31;6.8;5.2;4
78999;PMS7003;68406;53.914;27.416;2023-11-21T17:01:41;7.6;5.4;4.2
78999;PMS7003;68406;53.914;27.416;2023-11-21T17:06:55;6.6;5.5;4.4
78999;PMS7003;68406;53.914;27.416;2023-11-21T17:11:31;7;5.7;4.8
78999;PMS7003;68406;53.914;27.416;2023-11-21T17:16:19;8;5.5;4.1
78999;PMS7003;68406;53.914;27.416;2023-11-21T17:21:21;7.1;6;4.5
78999;PMS7003;68406;53.914;27.416;2023-11-21T17:26:33;6.5;5.3;4.1
78999;PMS7003;68406;53.914;27.416;2023-11-21T17:31:55;7.9;6;4.8
78999;PMS7003;68406;53.914;27.416;2023-11-21T17:36:45;7.3;5.4;4.1
78999;PMS7003;68406;53.914;27.416;2023-11-21T17:41:19;7.7;5.7;4.3
78999;PMS7003;68406;53.914;27.416;2023-11-21T17:46:35;5.7;4.9;4
78999;PMS7003;68406;53.914;27.416;2023-11-21T17:51:43;4.9;4.6;3.8
78999;PMS7003;68406;53.914;27.416;2023-11-21T17:56:57;5.7;4.3;3.2
78999;PMS7003;68406;53.914;27.416;2023-11-21T18:01:21;4.8;4.1;3.3
78999;PMS7003;68406;53.914;27.416;2023-11-21T18:06:21;5.1;4.4;3.3
78999;PMS7003;68406;53.914;27.416;2023-11-21T18:11:21;5.9;4.7;3.5
78999;PMS7003;68406;53.914;27.416;2023-11-21T18:16:33;6.2;4.9;3.7
78999;PMS7003;68406;53.914;27.416;2023-11-21T18:21:23;6.7;5;3.9
78999;PMS7003;68406;53.914;27.416;2023-11-21T18:26:45;6.3;4.7;3.4
78999;PMS7003;68406;53.914;27.416;2023-11-21T18:31:29;4.6;3.5;2.8
78999;PMS7003;68406;53.914;27.416;2023-11-21T18:36:47;4.8;2.9;2.3
78999;PMS7003;68406;53.914;27.416;2023-11-21T18:41:43;3.1;2.3;1.8
78999;PMS7003;68406;53.914;27.416;2023-11-21T18:46:53;1.8;1.4;1
78999;PMS7003;68406;53.914;27.416;2023-11-21T18:51:21;2.3;1.7;1.1
78999;PMS7003;68406;53.914;27.416;2023-11-21T18:56:21;2.6;1.8;1.4
78999;PMS7003;68406;53.914;27.416;2023-11-21T19:01:25;2.8;1.6;1.4
78999;PMS7003;68406;53.914;27.416;2023-11-21T19:06:31;2.7;1.7;1.4
78999;PMS7003;68406;53.914;27.416;2023-11-21T19:11:55;2.4;1.9;1.5
78999;PMS7003;68406;53.914;27.416;2023-11-21T19:16:33;3.2;1.9;1.6
78999;PMS7003;68406;53.914;27.416;2023-11-21T19:21:19;1.8;1.7;1.2
78999;PMS7003;68406;53.914;27.416;2023-11-21T19:26:45;1.7;1.5;1.3
78999;PMS7003;68406;53.914;27.416;2023-11-21T19:31:45;2.9;2.1;1.7
78999;PMS7003;68406;53.914;27.416;2023-11-21T19:36:51;2.5;2;1.5
78999;PMS7003;68406;53.914;27.416;2023-11-21T19:41:35;3.4;1.9;1.5
78999;PMS7003;68406;53.914;27.416;2023-11-21T19:46:21;2.8;2.1;1.9
78999;PMS7003;68406;53.914;27.416;2023-11-21T19:51:21;2.9;2.4;1.9
78999;PMS7003;68406;53.914;27.416;2023-11-21T19:56:19;2.5;1.5;1.2
78999;PMS7003;68406;53.914;27.416;2023-11-21T20:01:45;2.4;1.8;1.5
78999;PMS7003;68406;53.914;27.416;2023-11-21T20:06:33;2.5;2.4;1.9
78999;PMS7003;68406;53.914;27.416;2023-11-21T20:11:29;4.4;3;2.4
78999;PMS7003;68406;53.914;27.416;2023-11-21T20:16:29;3.2;2.5;2.1
78999;PMS7003;68406;53.914;27.416;2023-11-21T20:21:45;3.2;2.6;2.3
78999;PMS7003;68406;53.914;27.416;2023-11-21T20:26:51;3.2;2.6;2.2
78999;PMS7003;68406;53.914;27.416;2023-11-21T20:31:21;2.6;2.5;2
78999;PMS7003;68406;53.914;27.416;2023-11-21T20:36:29;3;2.1;1.7
78999;PMS7003;68406;53.914;27.416;2023-11-21T20:41:21;3.2;2;1.7
78999;PMS7003;68406;53.914;27.416;2023-11-21T20:46:38;3.5;2.7;2.1
78999;PMS7003;68406;53.914;27.416;2023-11-21T20:52:01;3.3;2.6;2.2
78999;PMS7003;68406;53.914;27.416;2023-11-21T20:57:01;2.9;2.5;2
78999;PMS7003;68406;53.914;27.416;2023-11-21T21:01:35;2.9;2.2;1.8
78999;PMS7003;68406;53.914;27.416;2023-11-21T21:06:36;3.4;2.4;2
78999;PMS7003;68406;53.914;27.416;2023-11-21T21:11:47;3.3;2.6;2
78999;PMS7003;68406;53.914;27.416;2023-11-21T21:16:55;2.9;2.3;1.7
78999;PMS7003;68406;53.914;27.416;2023-11-21T21:21:21;3.5;2.5;2
78999;PMS7003;68406;53.914;27.416;2023-11-21T21:26:33;3;2.3;1.9
78999;PMS7003;68406;53.914;27.416;2023-11-21T21:31:23;2.6;2.4;2
78999;PMS7003;68406;53.914;27.416;2023-11-21T21:36:35;2.6;2;1.6
78999;PMS7003;68406;53.914;27.416;2023-11-21T21:41:59;3.2;2.2;2
78999;PMS7003;68406;53.914;27.416;2023-11-21T21:46:51;2.6;2;1.5
78999;PMS7003;68406;53.914;27.416;2023-11-21T21:51:21;2.9;2.2;1.8
78999;PMS7003;68406;53.914;27.416;2023-11-21T21:56:51;3;2.1;1.6
78999;PMS7003;68406;53.914;27.416;2023-11-21T22:02:01;2.9;2.2;2
78999;PMS7003;68406;53.914;27.416;2023-11-21T22:06:23;3;2.3;1.9
78999;PMS7003;68406;53.914;27.416;2023-11-21T22:11:29;3;2;1.6
78999;PMS7003;68406;53.914;27.416;2023-11-21T22:16:21;3.5;2.3;1.9
78999;PMS7003;68406;53.914;27.416;2023-11-21T22:21:33;2.8;2.4;1.9
78999;PMS7003;68406;53.914;27.416;2023-11-21T22:26:47;3.2;2.8;2.3
78999;PMS7003;68406;53.914;27.416;2023-11-21T22:31:57;2.2;2;1.5
78999;PMS7003;68406;53.914;27.416;2023-11-21T22:36:47;3.3;2.6;2.2
78999;PMS7003;68406;53.914;27.416;2023-11-21T22:41:23;3.5;2.9;2.3
78999;PMS7003;68406;53.914;27.416;2023-11-21T22:46:47;3.1;2.4;2
78999;PMS7003;68406;53.914;27.416;2023-11-21T22:51:47;4.2;3.3;2.6
78999;PMS7003;68406;53.914;27.416;2023-11-21T22:56:59;3.7;3.2;2.7
78999;PMS7003;68406;53.914;27.416;2023-11-21T23:01:31;4.3;3.5;2.4
78999;PMS7003;68406;53.914;27.416;2023-11-21T23:06:23;4.1;3.3;2.7
78999;PMS7003;68406;53.914;27.416;2023-11-21T23:11:21;4;3.2;2.4
78999;PMS7003;68406;53.914;27.416;2023-11-21T23:16:37;4.4;3.1;2.6
78999;PMS7003;68406;53.914;27.416;2023-11-21T23:21:59;3.7;2.7;2.2
78999;PMS7003;68406;53.914;27.416;2023-11-21T23:26:47;4;3.1;2.4
78999;PMS7003;68406;53.914;27.416;2023-11-21T23:31:23;3.3;2.9;2.3
78999;PMS7003;68406;53.914;27.416;2023-11-21T23:36:49;3.1;2.4;2
78999;PMS7003;68406;53.914;27.416;2023-11-21T23:41:47;2.5;2.2;1.8
78999;PMS7003;68406;53.914;27.416;2023-11-21T23:46:59;2.8;2.1;1.7
78999;PMS7003;68406;53.914;27.416;2023-11-21T23:51:23;3.2;2.1;1.7
78999;PMS7003;68406;53.914;27.416;2023-11-21T23:56:23;2.9;2.2;1.7
